METAR AND TAF INFORMATION
METAR FOR HSSS
ADDS - METARS form results

(0559 UTC 23 May 2019)
Data provider http://aviationweather.gov/metar/data/
 
METAR text: HSSS 230530Z 02007KT 4000 HZ 33/10 Q1010 NOSIG
Conditions at: HSSS (KHARTOUM (CIV/MI, SD) observed 0530 UTC 23 May 2019
Temperature: 33.0°C (91°F)
Dewpoint: 10.0°C (50°F) [RH = 24%]
Pressure (altimeter): 29.82 inches Hg (1010.0 mb)
Winds: from the NNE (20 degrees) at 8 MPH (7 knots; 3.6 m/s)
Visibility: 2.49 miles (4.01 km)
Ceiling: unknown
Clouds: missing
Weather: HZ  (haze)

METAR text: HSSS 230500Z 01006KT 6000 32/10 Q1009 NOSIG
Conditions at: HSSS (KHARTOUM (CIV/MI, SD) observed 0500 UTC 23 May 2019
Temperature: 32.0°C (90°F)
Dewpoint: 10.0°C (50°F) [RH = 26%]
Pressure (altimeter): 29.79 inches Hg (1009.0 mb)
Winds: from the N (10 degrees) at 7 MPH (6 knots; 3.1 m/s)
Visibility: 4 miles ( 6 km)
Ceiling: unknown
Clouds: missing
Weather: no significant weather observed at this time

Forecast for: HSSS (KHARTOUM (CIV/MI, SD)
Text: TAF HSSS 230500Z 2306/2412 02008G18KT CAVOK
Forecast period: 0600 UTC 23 May 2019 to 1200 UTC 24 May 2019
Forecast type: FROM: standard forecast or significant change
Winds: from the NNE (20 degrees) at 9 MPH (8 knots; 4.1 m/s)
gusting to 21 MPH (18 knots; 9.3 m/s)
Visibility: 6 or more miles 10+ km)
Ceiling: unknown
Clouds: missing
Weather: NSW  (no significant weather)
Text: TEMPO 2306/2309 6000 NSC
Forecast period: 0600 to 0900 UTC 23 May 2019
Forecast type: TEMPORARY: The following changes expected for less than half the time period
Visibility: 4 miles (6 km)
Ceiling: unknown
Clouds: missing
Weather: no significant weather forecast for this period

 AIRPORT MAP

 RUNWAY INFORMATION
Runway 18 Runway length 9751 ft Runway width 148 ft
Runway elevation 1265 ft Runway displaced threshold 0 ft Runway heading 177
Runway 36 Runway length 9751 ft Runway width 148 ft
Runway elevation 1260 ft Runway displaced threshold 0 ft Runway heading 357

 AIRPORT FREQUENCIES
Type APP Name Khartoum A Frequency 124.7 MHZ
Type EMR Name FIRE Frequency 121.9 MHZ
Type North Area Name North Sect Frequency 125.4 MHZ
Type South Area Name South Sect Frequency 127.3 MHZ
Type TWR Name Khartoum T Frequency 119.2 MHZ

 AIRPORT NEAR NAVIGATION AIDS
Type VOR-DME Name Khartoum Frequency 112100 KHZ



Powered by Virtual Airlines Manager [v2.6.2]